Time;durP1;ratioP1;P1;durP2;ratioP2;P2;SDS_P1;SDS_P2;PMS_P1;PMS_P2;Temp;Humidity;BMP_temperature;BMP_pressure;BME280_temperature;BME280_humidity;BME280_pressure;Samples;Min_cycle;Max_cycle;Signal;HPM_P1;HPM_P2
2023/01/29 00:01:57;;;;;;;28.98;18.63;;;;;;;-0.29;44.33;102657.06;4977126;28;20501;-69
2023/01/29 00:04:26;;;;;;;33.97;20.35;;;;;;;-0.30;43.95;102651.69;4999385;28;20079;-68
2023/01/29 00:06:54;;;;;;;32.08;19.50;;;;;;;-0.34;43.79;102650.88;4974971;28;20046;-68
2023/01/29 00:09:22;;;;;;;31.58;19.67;;;;;;;-0.37;44.08;102652.69;4971716;28;20055;-66
2023/01/29 00:11:50;;;;;;;32.55;19.17;;;;;;;-0.43;43.87;102649.19;4959990;28;20038;-66
2023/01/29 00:14:19;;;;;;;31.25;19.05;;;;;;;-0.45;44.04;102651.00;4978935;28;20650;-68
2023/01/29 00:16:46;;;;;;;30.77;17.63;;;;;;;-0.46;44.15;102653.72;4979008;28;20043;-68
2023/01/29 00:19:14;;;;;;;30.02;18.65;;;;;;;-0.50;44.16;102636.75;4983168;28;20455;-66
2023/01/29 00:21:43;;;;;;;31.23;18.60;;;;;;;-0.53;44.11;102628.72;4955014;28;20504;-67
2023/01/29 00:24:11;;;;;;;30.20;17.80;;;;;;;-0.55;44.21;102633.22;4960423;28;20503;-68
2023/01/29 00:26:41;;;;;;;30.08;18.15;;;;;;;-0.57;44.17;102637.75;4954475;28;20046;-67
2023/01/29 00:29:09;;;;;;;28.15;17.95;;;;;;;-0.57;44.21;102639.53;4975771;28;20546;-69
2023/01/29 00:31:37;;;;;;;28.60;17.45;;;;;;;-0.59;44.39;102627.91;4981478;28;20040;-68
2023/01/29 00:34:07;;;;;;;31.02;18.15;;;;;;;-0.61;44.15;102624.34;4985432;28;20565;-69
2023/01/29 00:36:34;;;;;;;29.90;19.27;;;;;;;-0.64;44.42;102622.59;4964188;28;20471;-65
2023/01/29 00:39:09;;;;;;;31.65;18.83;;;;;;;-0.63;44.22;102627.03;4962063;28;20065;-71
2023/01/29 00:47:29;;;;;;;28.42;18.58;;;;;;;-0.73;44.18;102624.50;5013297;28;20078;-68
2023/01/29 00:49:57;;;;;;;29.42;18.17;;;;;;;-0.75;44.34;102629.91;4957928;28;20055;-68
2023/01/29 00:52:25;;;;;;;30.30;18.77;;;;;;;-0.76;44.71;102633.50;4975559;28;20050;-69
2023/01/29 00:54:56;;;;;;;30.25;18.98;;;;;;;-0.75;44.67;102631.69;4968126;28;20056;-69
2023/01/29 00:57:25;;;;;;;31.73;19.38;;;;;;;-0.78;44.46;102622.75;4963137;28;20401;-67
2023/01/29 00:59:54;;;;;;;31.88;19.92;;;;;;;-0.79;44.49;102620.06;4959812;28;20047;-68
2023/01/29 01:05:12;;;;;;;29.38;18.25;;;;;;;-0.82;44.53;102617.44;5037116;28;20078;-68
2023/01/29 01:07:41;;;;;;;29.95;17.67;;;;;;;-0.84;44.66;102628.22;4951510;28;20126;-68
2023/01/29 01:10:23;;;;;;;29.17;17.77;;;;;;;-0.81;44.63;102624.59;4957471;28;20066;-68
2023/01/29 01:12:54;;;;;;;25.08;16.45;;;;;;;-0.84;44.93;102628.22;4967469;28;20043;-68
2023/01/29 01:15:23;;;;;;;28.83;18.13;;;;;;;-0.83;44.70;102627.31;4967405;28;20108;-69
2023/01/29 01:17:55;;;;;;;32.92;19.33;;;;;;;-0.81;44.84;102632.66;4968269;28;20039;-68
2023/01/29 01:20:24;;;;;;;23.30;13.93;;;;;;;-0.88;44.81;102641.69;4965916;28;20538;-68
2023/01/29 01:22:54;;;;;;;28.90;17.13;;;;;;;-0.83;44.53;102638.06;4967968;28;20168;-67
2023/01/29 01:25:24;;;;;;;31.13;19.70;;;;;;;-0.82;44.96;102636.25;4962907;28;20079;-66
2023/01/29 01:27:52;;;;;;;29.75;18.60;;;;;;;-0.82;44.78;102638.94;4956903;28;20081;-68
2023/01/29 01:30:21;;;;;;;26.63;17.38;;;;;;;-0.83;44.70;102631.78;4950191;28;20097;-67
2023/01/29 01:32:49;;;;;;;31.77;18.63;;;;;;;-0.82;44.68;102629.09;4956917;28;20040;-68
2023/01/29 01:35:17;;;;;;;28.58;18.80;;;;;;;-0.82;44.73;102628.19;4937564;28;20146;-68
2023/01/29 01:37:44;;;;;;;31.50;18.58;;;;;;;-0.83;44.89;102627.31;4944121;28;20047;-69
2023/01/29 01:40:16;;;;;;;31.05;18.77;;;;;;;-0.83;44.88;102608.50;4951501;28;20075;-69
2023/01/29 01:42:48;;;;;;;31.48;18.30;;;;;;;-0.83;44.67;102604.91;4940895;28;20051;-68
2023/01/29 01:45:20;;;;;;;31.05;19.05;;;;;;;-0.84;44.71;102587.00;4953082;28;20078;-68
2023/01/29 01:47:52;;;;;;;30.83;18.13;;;;;;;-0.85;44.53;102591.50;4953498;28;20043;-68
2023/01/29 01:50:24;;;;;;;32.15;20.48;;;;;;;-0.86;44.50;102596.88;4954886;28;20410;-68
2023/01/29 01:52:55;;;;;;;32.87;19.47;;;;;;;-0.89;44.67;102597.81;5007148;28;20164;-68
2023/01/29 01:55:26;;;;;;;30.33;18.98;;;;;;;-0.89;44.36;102594.25;4967319;28;20058;-68
2023/01/29 01:57:59;;;;;;;32.08;18.63;;;;;;;-0.91;44.68;102596.94;4955403;28;20057;-68
2023/01/29 02:00:27;;;;;;;;;;;;;;;-1.14;45.29;102588.28;4945947;28;20523;-67
2023/01/29 02:11:17;;;;;;;28.30;18.05;;;;;;;-1.07;44.65;102600.72;4967226;28;20061;-68
2023/01/29 02:13:52;;;;;;;30.05;18.80;;;;;;;-1.07;44.60;102602.53;4987660;28;20085;-69
2023/01/29 02:16:25;;;;;;;27.95;18.08;;;;;;;-1.11;44.65;102598.06;4963916;28;20042;-68
2023/01/29 02:18:55;;;;;;;32.78;19.02;;;;;;;-1.13;44.53;102594.53;4979726;28;20062;-68
2023/01/29 02:21:45;;;;;;;32.97;19.33;;;;;;;-1.11;44.90;102598.97;4977578;28;20046;-68
2023/01/29 02:24:40;;;;;;;30.83;18.42;;;;;;;-1.14;44.95;102611.56;4981111;28;20054;-67
2023/01/29 02:27:11;;;;;;;28.55;17.52;;;;;;;-1.20;44.88;102607.13;4949192;28;20122;-67
2023/01/29 02:29:50;;;;;;;31.50;17.88;;;;;;;-1.18;44.99;102602.63;4964140;28;20149;-67
2023/01/29 02:32:28;;;;;;;31.13;18.42;;;;;;;-1.20;44.92;102612.50;4988259;28;20050;-66
2023/01/29 02:35:27;;;;;;;28.45;17.20;;;;;;;-1.19;44.98;102622.34;4987350;28;20051;-68
2023/01/29 02:38:01;;;;;;;26.65;16.80;;;;;;;-1.22;44.86;102633.13;5016485;28;20051;-68
2023/01/29 02:40:35;;;;;;;27.98;16.52;;;;;;;-1.21;44.97;102630.41;4956655;28;20043;-67
2023/01/29 02:43:14;;;;;;;28.85;17.02;;;;;;;-1.19;45.15;102642.03;4991516;28;20142;-68
2023/01/29 02:45:49;;;;;;;25.52;15.80;;;;;;;-1.18;45.08;102633.06;4965343;28;20061;-68
2023/01/29 02:48:22;;;;;;;27.85;16.15;;;;;;;-1.17;44.98;102642.91;5004898;28;20057;-68
2023/01/29 02:50:56;;;;;;;28.70;16.63;;;;;;;-1.15;45.26;102648.28;4957542;28;20059;-68
2023/01/29 02:53:33;;;;;;;28.27;17.15;;;;;;;-1.14;45.04;102644.69;4973762;28;20399;-67
2023/01/29 02:56:07;;;;;;;28.63;17.88;;;;;;;-1.15;45.17;102645.59;4962908;28;20493;-68
2023/01/29 02:58:39;;;;;;;28.40;16.98;;;;;;;-1.13;45.12;102648.28;4958342;28;20499;-67
2023/01/29 03:01:14;;;;;;;26.73;16.55;;;;;;;-1.14;45.24;102627.69;4970887;28;20066;-67
2023/01/29 03:03:45;;;;;;;29.05;16.55;;;;;;;-1.13;44.88;102626.78;4962501;28;20048;-68
2023/01/29 03:06:21;;;;;;;29.13;17.65;;;;;;;-1.11;45.42;102627.63;4975754;28;20054;-67
2023/01/29 03:08:55;;;;;;;27.88;16.67;;;;;;;-1.10;45.15;102629.41;4972490;28;20474;-68
2023/01/29 03:11:23;;;;;;;29.23;17.10;;;;;;;-1.12;45.16;102626.75;4980616;28;20419;-67
2023/01/29 03:13:56;;;;;;;29.10;17.02;;;;;;;-1.11;44.94;102607.03;4968687;28;20047;-67
2023/01/29 03:16:30;;;;;;;;;;;;;;;-1.31;45.72;102615.31;4960053;28;20042;-68
2023/01/29 03:19:05;;;;;;;28.88;15.60;;;;;;;-1.15;45.18;102609.78;4973864;28;20154;-68
2023/01/29 03:21:54;;;;;;;28.13;16.33;;;;;;;-1.12;44.99;102613.31;4954666;28;20043;-68
2023/01/29 03:33:11;;;;;;;30.63;16.77;;;;;;;-1.22;45.06;102617.03;4952133;28;20051;-68
2023/01/29 03:35:47;;;;;;;27.80;16.48;;;;;;;-1.22;45.21;102614.34;4970577;28;20431;-67
2023/01/29 03:38:15;;;;;;;31.55;18.13;;;;;;;-1.25;45.07;102622.41;4933235;28;20048;-67
2023/01/29 03:40:48;;;;;;;29.50;17.08;;;;;;;-1.24;45.10;102630.47;4971908;28;20037;-67
2023/01/29 03:43:31;;;;;;;29.20;16.90;;;;;;;-1.23;45.43;102631.34;4944126;28;20419;-67
2023/01/29 03:46:04;;;;;;;27.10;15.68;;;;;;;-1.25;45.02;102636.75;4958343;28;20717;-67
2023/01/29 03:48:38;;;;;;;29.17;15.90;;;;;;;-1.24;45.26;102627.78;4945312;28;20047;-67
2023/01/29 03:51:16;;;;;;;29.75;17.38;;;;;;;-1.25;45.41;102623.31;4952164;28;20047;-66
2023/01/29 03:53:51;;;;;;;32.85;17.92;;;;;;;-1.26;45.30;102618.84;4954470;28;20043;-67
2023/01/29 03:56:33;;;;;;;35.42;19.60;;;;;;;-1.26;45.11;102626.00;4951151;28;20622;-66
2023/01/29 03:59:09;;;;;;;31.63;18.42;;;;;;;-1.28;44.79;102620.63;4965661;28;20047;-68
2023/01/29 04:02:01;;;;;;;32.67;18.80;;;;;;;-1.32;45.00;102620.69;4987144;28;20062;-67
2023/01/29 04:04:32;;;;;;;31.65;18.55;;;;;;;-1.32;45.15;102618.91;4955887;28;20242;-68
2023/01/29 04:07:09;;;;;;;34.20;19.13;;;;;;;-1.36;45.34;102624.31;4955812;28;20044;-67
2023/01/29 04:09:42;;;;;;;31.98;18.48;;;;;;;-1.37;45.04;102614.47;4975179;28;20038;-68
2023/01/29 04:12:13;;;;;;;33.63;18.73;;;;;;;-1.39;44.80;102617.19;4974119;28;20047;-68
2023/01/29 04:14:45;;;;;;;30.42;17.20;;;;;;;-1.43;45.26;102606.47;4962879;28;20467;-68
2023/01/29 04:17:18;;;;;;;29.30;17.25;;;;;;;-1.41;45.36;102597.50;4972193;28;20054;-67
2023/01/29 04:20:12;;;;;;;28.20;16.48;;;;;;;-1.43;45.45;102603.78;4976475;28;20051;-68
2023/01/29 04:22:45;;;;;;;28.08;15.90;;;;;;;-1.44;45.38;102599.31;4967153;28;20051;-67
2023/01/29 04:25:17;;;;;;;28.52;16.38;;;;;;;-1.44;45.56;102592.16;4961380;28;20089;-67
2023/01/29 04:27:53;;;;;;;27.13;15.70;;;;;;;-1.41;45.26;102585.88;4963161;28;20046;-67
2023/01/29 04:30:34;;;;;;;26.50;15.73;;;;;;;-1.40;45.53;102575.13;4968344;28;20078;-68
2023/01/29 04:33:16;;;;;;;28.10;15.68;;;;;;;-1.40;45.63;102572.44;4986522;28;20053;-67
2023/01/29 04:36:17;;;;;;;25.23;15.00;;;;;;;-1.38;45.66;102572.44;4969373;28;20124;-67
2023/01/29 04:38:59;;;;;;;24.63;14.45;;;;;;;-1.39;45.43;102566.16;4981499;28;20053;-66
2023/01/29 04:41:33;;;;;;;25.35;14.88;;;;;;;-1.38;45.50;102565.25;4977115;28;20085;-67
2023/01/29 04:44:08;;;;;;;27.67;15.68;;;;;;;-1.35;45.57;102567.91;4964293;28;20051;-67
2023/01/29 04:46:44;;;;;;;24.40;16.08;;;;;;;-1.33;45.32;102568.78;4966541;28;20160;-68
2023/01/29 04:49:25;;;;;;;27.20;16.30;;;;;;;-1.32;45.51;102570.56;4971407;28;20141;-68
2023/01/29 04:52:00;;;;;;;24.60;14.77;;;;;;;-1.32;45.46;102567.88;4953659;28;20454;-67
2023/01/29 04:54:35;;;;;;;30.70;15.57;;;;;;;-1.31;45.44;102575.03;4968278;28;20049;-68
2023/01/29 04:57:13;;;;;;;26.33;15.00;;;;;;;-1.29;45.38;102566.94;4960733;28;20082;-68
2023/01/29 04:59:45;;;;;;;24.63;15.32;;;;;;;-1.30;45.28;102560.69;4960126;28;20047;-66
2023/01/29 05:02:13;;;;;;;26.75;15.70;;;;;;;-1.30;45.28;102566.06;4969115;28;20608;-68
2023/01/29 05:04:44;;;;;;;27.67;16.30;;;;;;;-1.29;45.27;102559.75;4979142;28;20039;-68
2023/01/29 05:07:15;;;;;;;29.73;17.05;;;;;;;-1.28;45.06;102560.66;4966428;28;20122;-67
2023/01/29 05:09:45;;;;;;;30.50;18.42;;;;;;;-1.30;45.12;102559.81;4976039;28;20096;-68
2023/01/29 05:12:15;;;;;;;31.15;17.27;;;;;;;-1.31;45.26;102564.28;4959422;28;20051;-68
2023/01/29 05:14:45;;;;;;;28.70;16.52;;;;;;;-1.33;44.95;102562.50;4977302;28;20044;-68
2023/01/29 05:17:16;;;;;;;24.75;15.13;;;;;;;-1.33;45.37;102557.16;4963740;28;20411;-68
2023/01/29 05:19:44;;;;;;;28.05;16.30;;;;;;;-1.34;45.31;102555.38;4956602;28;20686;-68
2023/01/29 05:22:17;;;;;;;26.25;16.42;;;;;;;-1.34;45.28;102563.41;4981085;28;20042;-68
2023/01/29 05:24:45;;;;;;;27.83;16.20;;;;;;;-1.36;45.24;102543.75;4977053;28;20046;-68
2023/01/29 05:30:03;;;;;;;28.00;16.70;;;;;;;-1.39;45.19;102547.38;4985795;28;20506;-67
2023/01/29 05:32:31;;;;;;;28.00;17.40;;;;;;;-1.40;45.13;102548.28;4987953;28;20569;-66
2023/01/29 05:34:59;;;;;;;28.95;18.33;;;;;;;-1.41;45.40;102550.97;4963737;28;20047;-68
2023/01/29 05:37:28;;;;;;;30.15;17.17;;;;;;;-1.43;45.25;102542.94;4970366;28;20050;-67
2023/01/29 05:39:56;;;;;;;29.20;17.67;;;;;;;-1.44;45.35;102546.50;4982121;28;20403;-68
2023/01/29 05:42:23;;;;;;;27.85;16.30;;;;;;;-1.45;45.06;102542.03;4949550;28;20404;-68
2023/01/29 05:44:51;;;;;;;27.42;16.38;;;;;;;-1.44;45.23;102537.56;4964701;28;20058;-68
2023/01/29 05:47:19;;;;;;;25.60;15.23;;;;;;;-1.44;45.49;102534.88;4974409;28;20126;-67
2023/01/29 05:49:47;;;;;;;27.38;15.52;;;;;;;-1.43;45.33;102533.97;4964406;28;20507;-66
2023/01/29 05:52:15;;;;;;;29.02;15.88;;;;;;;-1.41;45.41;102529.50;4976866;28;20153;-66
2023/01/29 05:54:44;;;;;;;26.70;15.73;;;;;;;-1.41;45.66;102535.75;4963081;28;20051;-67
2023/01/29 05:57:12;;;;;;;26.85;15.48;;;;;;;-1.39;45.58;102535.72;4964563;28;20035;-68
2023/01/29 05:59:40;;;;;;;30.13;16.77;;;;;;;-1.39;45.67;102542.00;4950750;28;20051;-68
2023/01/29 06:02:07;;;;;;;26.25;15.68;;;;;;;-1.37;45.45;102539.28;4963313;28;20100;-68
2023/01/29 06:04:35;;;;;;;28.02;15.65;;;;;;;-1.34;45.39;102541.94;4974087;28;20475;-66
2023/01/29 06:07:04;;;;;;;27.35;15.80;;;;;;;-1.34;45.39;102544.63;4959620;28;20038;-67
2023/01/29 06:09:31;;;;;;;25.48;15.13;;;;;;;-1.32;45.40;102557.13;4976214;28;20058;-69
2023/01/29 06:12:01;;;;;;;26.35;15.48;;;;;;;-1.30;45.68;102555.31;4963427;28;20050;-67
2023/01/29 06:14:29;;;;;;;28.85;17.38;;;;;;;-1.29;45.61;102553.50;4975154;28;20388;-68
2023/01/29 06:16:57;;;;;;;27.48;16.08;;;;;;;-1.27;45.85;102562.44;4958371;28;20412;-67
2023/01/29 06:19:24;;;;;;;27.58;15.95;;;;;;;-1.26;45.68;102565.13;4968824;28;20050;-66
2023/01/29 06:21:52;;;;;;;28.17;16.27;;;;;;;-1.26;45.72;102570.50;4955434;28;20088;-67
2023/01/29 06:24:20;;;;;;;27.33;16.30;;;;;;;-1.24;45.49;102573.16;4958796;28;20555;-68
2023/01/29 06:26:48;;;;;;;29.23;16.58;;;;;;;-1.24;45.66;102571.38;4963456;28;20045;-68
2023/01/29 06:29:17;;;;;;;30.73;18.00;;;;;;;-1.23;45.61;102581.22;4963314;28;20090;-67
2023/01/29 06:31:45;;;;;;;30.80;17.00;;;;;;;-1.23;45.64;102585.69;4963765;28;20039;-67
2023/01/29 06:34:13;;;;;;;29.30;16.38;;;;;;;-1.21;45.63;102594.59;4967881;28;20060;-67
2023/01/29 06:36:41;;;;;;;32.42;18.30;;;;;;;-1.21;45.62;102594.59;4964596;28;20046;-67
2023/01/29 06:39:09;;;;;;;29.90;16.13;;;;;;;-1.22;45.66;102596.44;4974295;28;20101;-66
2023/01/29 06:41:37;;;;;;;28.70;15.57;;;;;;;-1.19;45.81;102598.16;4970688;28;20065;-67
2023/01/29 06:44:05;;;;;;;25.35;15.13;;;;;;;-1.16;45.59;102595.44;4966153;28;20054;-68
2023/01/29 06:46:34;;;;;;;32.05;16.90;;;;;;;-1.14;45.79;102592.75;4967242;28;20285;-68
2023/01/29 06:49:02;;;;;;;29.50;17.10;;;;;;;-1.14;45.69;102599.03;4969086;28;20043;-68
2023/01/29 06:51:30;;;;;;;30.52;17.10;;;;;;;-1.14;45.51;102595.44;4962289;28;20121;-68
2023/01/29 06:53:58;;;;;;;31.40;17.45;;;;;;;-1.11;45.78;102592.69;4968334;28;20126;-67
2023/01/29 06:56:26;;;;;;;30.20;16.77;;;;;;;-1.11;45.74;102585.53;4981121;28;20035;-67
2023/01/29 06:58:54;;;;;;;25.70;15.60;;;;;;;-1.10;45.48;102586.44;4946218;28;20097;-66
2023/01/29 07:01:21;;;;;;;26.85;16.80;;;;;;;-1.09;45.78;102572.09;4960573;28;20086;-68
2023/01/29 07:04:04;;;;;;;27.65;15.88;;;;;;;-1.09;45.64;102570.28;4962754;28;20058;-67
2023/01/29 07:06:32;;;;;;;28.50;17.05;;;;;;;-1.08;45.63;102574.75;4984328;28;20402;-67
2023/01/29 07:09:00;;;;;;;29.67;16.38;;;;;;;-1.07;45.64;102573.84;4981833;28;20061;-68
2023/01/29 07:11:28;;;;;;;30.35;16.83;;;;;;;-1.05;45.66;102576.53;4980373;28;20122;-66
2023/01/29 07:13:55;;;;;;;29.35;16.30;;;;;;;-1.03;45.50;102572.00;4978185;28;20042;-67
2023/01/29 07:16:23;;;;;;;26.23;15.25;;;;;;;-1.02;45.79;102565.72;4973307;28;20042;-68
2023/01/29 07:18:51;;;;;;;29.83;17.17;;;;;;;-1.02;45.64;102572.00;4984289;28;20419;-67
2023/01/29 07:21:21;;;;;;;30.15;18.23;;;;;;;-0.99;45.71;102584.50;4972825;28;20065;-68
2023/01/29 07:23:49;;;;;;;32.95;18.52;;;;;;;-1.00;45.73;102582.72;4969383;28;20133;-67
2023/01/29 07:26:17;;;;;;;31.05;17.90;;;;;;;-1.01;45.57;102584.53;4970537;28;20088;-68
2023/01/29 07:28:45;;;;;;;31.92;17.67;;;;;;;-0.99;45.63;102590.78;4977695;28;20050;-67
2023/01/29 07:31:14;;;;;;;30.65;16.73;;;;;;;-0.99;45.95;102590.78;4957342;28;20039;-68
2023/01/29 07:33:43;;;;;;;33.10;16.98;;;;;;;-0.98;45.68;102589.88;4954754;28;20146;-67
2023/01/29 07:36:12;;;;;;;29.70;17.52;;;;;;;-0.99;45.93;102585.41;4965687;28;20035;-68
2023/01/29 07:38:41;;;;;;;31.98;16.88;;;;;;;-0.97;45.89;102583.59;4957283;28;20444;-67
2023/01/29 07:41:10;;;;;;;30.02;16.17;;;;;;;-0.96;45.91;102577.28;4968149;28;20051;-67
2023/01/29 07:43:38;;;;;;;29.80;16.35;;;;;;;-0.95;45.92;102576.38;4968569;28;20345;-67
2023/01/29 07:46:05;;;;;;;31.10;16.73;;;;;;;-0.93;46.00;102579.06;4971520;28;20046;-66
2023/01/29 07:48:34;;;;;;;29.45;16.38;;;;;;;-0.91;45.99;102569.19;4982018;28;20117;-67
2023/01/29 07:51:02;;;;;;;31.00;17.50;;;;;;;-0.90;45.99;102571.84;4971121;28;20046;-66
2023/01/29 07:53:30;;;;;;;30.90;17.23;;;;;;;-0.87;45.96;102565.53;4967113;28;20051;-67
2023/01/29 07:55:59;;;;;;;30.58;16.70;;;;;;;-0.86;46.04;102572.69;4973873;28;20039;-67
2023/01/29 07:58:27;;;;;;;30.73;17.10;;;;;;;-0.84;46.09;102578.94;4978882;28;20051;-66
2023/01/29 08:00:55;;;;;;;31.88;17.42;;;;;;;-0.83;46.14;102578.03;4951318;28;20043;-68
2023/01/29 08:03:23;;;;;;;32.80;18.25;;;;;;;-0.81;46.13;102565.47;4964066;28;20133;-66
2023/01/29 08:05:51;;;;;;;30.13;17.33;;;;;;;-0.78;45.93;102551.97;4971630;28;20054;-66
2023/01/29 08:08:19;;;;;;;32.70;17.17;;;;;;;-0.75;46.18;102551.03;4972731;28;20121;-67
2023/01/29 08:10:47;;;;;;;30.98;16.92;;;;;;;-0.73;46.19;102557.31;4978999;28;20050;-68
2023/01/29 08:13:16;;;;;;;29.25;16.63;;;;;;;-0.70;46.05;102570.69;4997997;28;20047;-67
2023/01/29 08:15:45;;;;;;;31.13;16.38;;;;;;;-0.69;46.12;102564.41;4975784;28;20050;-66
2023/01/29 08:18:12;;;;;;;30.10;16.55;;;;;;;-0.67;46.09;102568.84;4993733;28;20046;-66
2023/01/29 08:20:40;;;;;;;33.08;17.88;;;;;;;-0.64;45.85;102567.94;4970803;28;20066;-67
2023/01/29 08:23:12;;;;;;;31.58;17.27;;;;;;;-0.62;46.32;102566.97;4972138;28;20058;-67
2023/01/29 08:25:40;;;;;;;32.13;16.50;;;;;;;-0.62;46.15;102553.53;4960253;28;20071;-67
2023/01/29 08:28:09;;;;;;;31.13;16.58;;;;;;;-0.59;45.98;102552.63;4950368;28;20054;-68
2023/01/29 08:30:38;;;;;;;31.80;16.33;;;;;;;-0.56;46.18;102544.50;4968289;28;20092;-67
2023/01/29 08:33:06;;;;;;;31.85;16.88;;;;;;;-0.57;46.09;102540.94;4985273;28;20043;-67
2023/01/29 08:35:34;;;;;;;31.20;15.90;;;;;;;-0.55;46.14;102536.41;4986842;28;20103;-68
2023/01/29 08:38:03;;;;;;;31.25;16.65;;;;;;;-0.53;46.04;102548.03;4970894;28;20047;-67
2023/01/29 08:40:33;;;;;;;33.63;16.08;;;;;;;-0.52;46.01;102552.50;4974103;28;20438;-67
2023/01/29 08:43:03;;;;;;;29.50;16.60;;;;;;;-0.52;45.99;102552.50;4970012;28;20557;-68
2023/01/29 08:45:35;;;;;;;30.03;15.87;;;;;;;-0.50;45.90;102560.56;4968274;28;20059;-66
2023/01/29 08:48:05;;;;;;;30.65;16.58;;;;;;;-0.47;45.99;102565.88;4984293;28;20129;-68
2023/01/29 08:50:34;;;;;;;31.35;15.93;;;;;;;-0.49;46.03;102563.22;4959213;28;20058;-67
2023/01/29 08:53:04;;;;;;;32.08;18.17;;;;;;;-0.46;46.30;102565.84;4988420;28;20399;-66
2023/01/29 08:55:32;;;;;;;30.33;17.48;;;;;;;-0.45;46.02;102567.63;5032144;28;20079;-68
2023/01/29 08:57:59;;;;;;;33.30;17.50;;;;;;;-0.46;46.26;102563.16;4968561;28;20047;-66
2023/01/29 09:00:27;;;;;;;29.67;15.88;;;;;;;-0.44;46.18;102566.72;4966965;28;20440;-69
2023/01/29 09:02:55;;;;;;;31.08;16.98;;;;;;;-0.41;46.22;102568.50;4967825;28;20058;-68
2023/01/29 09:05:24;;;;;;;28.60;15.60;;;;;;;-0.39;46.14;102560.41;5008595;28;20112;-68
2023/01/29 09:07:52;;;;;;;34.83;17.30;;;;;;;-0.38;46.22;102548.69;4964822;28;20140;-68
2023/01/29 09:10:21;;;;;;;30.42;16.67;;;;;;;-0.37;46.36;102537.91;4985048;28;20050;-67
2023/01/29 09:12:48;;;;;;;30.27;16.55;;;;;;;-0.35;46.19;102544.19;4964083;28;20059;-67
2023/01/29 09:15:16;;;;;;;26.35;15.23;;;;;;;-0.33;46.50;102536.09;4983035;28;20430;-67
2023/01/29 09:17:45;;;;;;;31.58;16.58;;;;;;;-0.31;46.39;102542.34;4966432;28;20487;-67
2023/01/29 09:20:12;;;;;;;31.10;16.65;;;;;;;-0.30;46.30;102542.28;4998297;28;20044;-68
2023/01/29 09:22:42;;;;;;;31.48;17.00;;;;;;;-0.27;46.46;102536.88;4953834;28;20039;-68
2023/01/29 09:25:10;;;;;;;33.85;18.02;;;;;;;-0.27;46.31;102534.19;4958703;28;20039;-68
2023/01/29 09:27:38;;;;;;;32.05;17.65;;;;;;;-0.26;46.34;102525.19;4952064;28;20396;-68
2023/01/29 09:30:07;;;;;;;35.63;17.98;;;;;;;-0.23;46.26;102526.97;4978623;28;20061;-68
2023/01/29 09:32:35;;;;;;;32.22;17.10;;;;;;;-0.23;46.42;102527.84;4970407;28;20130;-68
2023/01/29 09:35:21;;;;;;;30.45;16.75;;;;;;;-0.22;46.16;102520.63;5011738;28;20618;-68
2023/01/29 09:37:51;;;;;;;32.15;17.33;;;;;;;-0.20;46.38;102517.03;4992874;28;20487;-68
2023/01/29 09:40:25;;;;;;;31.70;16.25;;;;;;;-0.18;46.22;102508.94;4983573;28;20136;-68
2023/01/29 09:42:57;;;;;;;29.88;16.35;;;;;;;-0.18;46.26;102514.31;4962829;28;20049;-66
2023/01/29 09:45:28;;;;;;;31.52;16.45;;;;;;;-0.18;46.39;102512.50;4994869;28;20055;-66
2023/01/29 09:48:00;;;;;;;29.48;15.85;;;;;;;-0.17;46.33;102500.84;4964626;28;20034;-66
2023/01/29 09:50:32;;;;;;;30.13;16.38;;;;;;;-0.14;46.26;102486.41;5003341;28;20062;-69
2023/01/29 09:53:12;;;;;;;32.07;16.10;;;;;;;-0.12;46.46;102501.63;4958196;28;20074;-68
2023/01/29 09:55:46;;;;;;;30.08;15.63;;;;;;;-0.10;46.41;102507.00;4976232;28;20295;-68
2023/01/29 09:58:19;;;;;;;32.65;16.40;;;;;;;-0.08;46.47;102500.69;4960382;28;20050;-68
2023/01/29 10:00:57;;;;;;;30.02;15.70;;;;;;;-0.06;46.62;102492.59;4956985;28;20049;-66
2023/01/29 10:03:41;;;;;;;32.92;18.00;;;;;;;-0.06;46.63;102493.44;4966372;28;20125;-69
2023/01/29 10:06:23;;;;;;;29.20;15.60;;;;;;;-0.03;46.68;102490.72;4965047;28;20043;-66
2023/01/29 10:09:16;;;;;;;32.38;16.90;;;;;;;-0.02;46.58;102487.13;4960754;28;20473;-68
2023/01/29 10:11:53;;;;;;;28.80;14.98;;;;;;;-0.02;46.47;102489.81;4957707;28;20147;-68
2023/01/29 10:14:36;;;;;;;33.85;16.85;;;;;;;0.02;46.49;102495.16;4971395;28;20469;-68
2023/01/29 10:17:21;;;;;;;30.88;15.23;;;;;;;0.04;46.61;102494.19;4959809;28;20054;-68
2023/01/29 10:20:03;;;;;;;29.73;15.77;;;;;;;0.07;46.39;102498.63;4958992;28;20478;-66
2023/01/29 10:22:57;;;;;;;32.60;16.35;;;;;;;0.08;46.32;102490.53;4968024;28;20043;-68
2023/01/29 10:25:27;;;;;;;30.48;15.70;;;;;;;0.09;46.41;102497.69;4966674;28;20094;-68
2023/01/29 10:27:59;;;;;;;32.72;16.05;;;;;;;0.11;46.39;102492.25;4966214;28;20264;-68
2023/01/29 10:30:31;;;;;;;34.72;17.52;;;;;;;0.14;46.29;102495.78;4957056;28;20101;-68
2023/01/29 10:33:03;;;;;;;32.55;17.42;;;;;;;0.14;46.45;102498.50;4962628;28;20412;-68
2023/01/29 10:35:35;;;;;;;32.45;17.02;;;;;;;0.18;46.27;102502.03;4957322;28;20081;-68
2023/01/29 10:38:15;;;;;;;;;;;;;;;-0.03;46.77;102493.41;4970867;28;20034;-67
2023/01/29 10:40:49;;;;;;;32.00;15.30;;;;;;;0.19;46.47;102498.44;4965381;28;20406;-68
2023/01/29 10:43:24;;;;;;;32.03;14.98;;;;;;;0.24;46.44;102493.81;4972104;28;20048;-68
2023/01/29 10:46:00;;;;;;;31.27;15.30;;;;;;;0.27;46.34;102491.09;4954762;28;20121;-70
2023/01/29 10:48:53;;;;;;;31.30;16.02;;;;;;;0.27;46.33;102475.78;4966373;28;20039;-67
2023/01/29 10:51:35;;;;;;;32.63;16.20;;;;;;;0.29;46.59;102473.06;4962269;28;20047;-67
2023/01/29 10:54:21;;;;;;;33.47;16.08;;;;;;;0.32;46.49;102465.84;4958802;28;20472;-69
2023/01/29 10:57:01;;;;;;;36.80;16.77;;;;;;;0.34;46.56;102463.13;4955880;28;20047;-68
2023/01/29 10:59:48;;;;;;;33.38;16.25;;;;;;;0.38;46.30;102450.47;4954528;28;20157;-68
2023/01/29 11:02:20;;;;;;;33.60;16.35;;;;;;;0.39;46.58;102446.84;4953522;28;20504;-68
2023/01/29 11:04:48;;;;;;;33.85;16.73;;;;;;;0.41;46.55;102447.72;4960846;28;20130;-68
2023/01/29 11:07:19;;;;;;;34.15;16.20;;;;;;;0.44;46.66;102435.06;4958436;28;20051;-68
2023/01/29 11:09:56;;;;;;;33.88;16.38;;;;;;;0.48;46.70;102434.09;4962180;28;20109;-68
2023/01/29 11:12:29;;;;;;;32.97;16.85;;;;;;;0.50;46.63;102429.56;4947770;28;20508;-68
2023/01/29 11:15:03;;;;;;;32.38;16.48;;;;;;;0.55;46.73;102427.66;4960938;28;20101;-68
2023/01/29 11:17:31;;;;;;;34.35;16.85;;;;;;;0.59;46.52;102431.19;4954634;28;20059;-68
2023/01/29 11:19:59;;;;;;;33.20;16.65;;;;;;;0.62;46.33;102429.28;4955885;28;20039;-68
2023/01/29 11:22:28;;;;;;;34.17;16.88;;;;;;;0.65;46.50;102423.84;4965314;28;20051;-68
2023/01/29 11:25:15;;;;;;;34.83;17.15;;;;;;;0.70;46.21;102430.03;4971008;28;20042;-67
2023/01/29 11:27:46;;;;;;;31.85;16.58;;;;;;;0.70;46.21;102434.53;4974318;28;20043;-68
2023/01/29 11:30:21;;;;;;;33.05;15.68;;;;;;;0.72;46.30;102427.28;4982792;28;20085;-68
2023/01/29 11:32:52;;;;;;;36.58;17.13;;;;;;;0.74;46.30;102420.97;4982969;28;20112;-68
2023/01/29 11:35:23;;;;;;;34.10;17.10;;;;;;;0.76;46.31;102420.94;4954469;28;20043;-68
2023/01/29 11:37:51;;;;;;;33.17;16.23;;;;;;;0.77;46.21;102414.59;4975303;28;20113;-67
2023/01/29 11:40:44;;;;;;;34.80;16.83;;;;;;;0.78;45.78;102407.41;4983639;28;20349;-67
2023/01/29 11:43:29;;;;;;;32.10;15.52;;;;;;;0.80;45.82;102405.56;4994709;28;20069;-68
2023/01/29 11:46:00;;;;;;;33.42;16.52;;;;;;;0.80;45.89;102410.97;4966200;28;20054;-67
2023/01/29 11:48:39;;;;;;;32.95;16.83;;;;;;;0.83;46.11;102401.00;4964344;28;20100;-66
2023/01/29 11:51:10;;;;;;;33.33;16.58;;;;;;;0.82;46.03;102384.88;4947182;28;20431;-68
2023/01/29 11:53:40;;;;;;;31.33;15.93;;;;;;;0.83;45.88;102387.53;4960251;28;20055;-68
2023/01/29 11:56:22;;;;;;;34.50;17.40;;;;;;;0.85;45.77;102374.88;4957587;28;20044;-66
2023/01/29 11:58:56;;;;;;;31.40;16.20;;;;;;;0.84;45.72;102367.75;4959127;28;20101;-67
2023/01/29 12:01:32;;;;;;;35.17;16.48;;;;;;;0.85;45.78;102365.94;4947014;28;20051;-68
2023/01/29 12:04:01;;;;;;;35.13;17.08;;;;;;;0.85;45.93;102357.84;4968629;28;20137;-68